TimeMST,TemperatureF,Dew PointF,Humidity,Sea Level PressureIn,VisibilityMPH,Wind Direction,Wind SpeedMPH,Gust SpeedMPH,PrecipitationIn,Events,Conditions,WindDirDegrees,DateUTC
12:51 AM,63.0,30.0,29,29.84,10.0,Calm,Calm,-,N/A,,Clear,0,2012-09-27 07:51:00
1:51 AM,61.0,32.0,34,29.84,10.0,Calm,Calm,-,N/A,,Clear,0,2012-09-27 08:51:00
2:51 AM,64.0,33.1,31,29.83,10.0,Calm,Calm,-,N/A,,Clear,0,2012-09-27 09:51:00
3:51 AM,59.0,34.0,39,29.85,10.0,Calm,Calm,-,N/A,,Clear,0,2012-09-27 10:51:00
4:51 AM,60.1,33.1,36,29.85,10.0,Calm,Calm,-,N/A,,Clear,0,2012-09-27 11:51:00
5:51 AM,61.0,34.0,36,29.86,10.0,East,9.2,-,N/A,,Clear,100,2012-09-27 12:51:00
6:51 AM,59.0,34.0,39,29.89,10.0,East,5.8,-,N/A,,Clear,100,2012-09-27 13:51:00
7:51 AM,70.0,36.0,29,29.89,10.0,Calm,Calm,-,N/A,,Clear,0,2012-09-27 14:51:00
8:51 AM,73.9,35.1,24,29.91,10.0,Calm,Calm,-,N/A,,Clear,0,2012-09-27 15:51:00
9:51 AM,79.0,36.0,21,29.91,10.0,North,6.9,-,N/A,,Clear,350,2012-09-27 16:51:00
10:51 AM,84.0,35.1,17,29.89,10.0,NW,4.6,-,N/A,,Clear,320,2012-09-27 17:51:00
11:51 AM,84.0,33.1,16,29.88,10.0,WNW,3.5,-,N/A,,Clear,300,2012-09-27 18:51:00
12:51 PM,86.0,32.0,14,29.86,10.0,Variable,4.6,17.3,N/A,,Clear,0,2012-09-27 19:51:00
1:51 PM,87.1,32.0,14,29.84,10.0,SW,9.2,-,N/A,,Clear,220,2012-09-27 20:51:00
2:51 PM,87.1,30.9,13,29.82,10.0,Calm,Calm,-,N/A,,Clear,0,2012-09-27 21:51:00
3:51 PM,87.1,30.0,13,29.82,10.0,Variable,4.6,-,N/A,,Clear,0,2012-09-27 22:51:00
4:51 PM,86.0,30.0,13,29.81,10.0,Calm,Calm,-,N/A,,Clear,0,2012-09-27 23:51:00
5:51 PM,84.9,32.0,15,29.81,10.0,SW,9.2,-,N/A,,Clear,220,2012-09-28 00:51:00
6:51 PM,79.0,32.0,18,29.84,10.0,SW,6.9,-,N/A,,Partly Cloudy,220,2012-09-28 01:51:00
7:51 PM,73.9,32.0,21,29.85,10.0,South,6.9,-,N/A,,Clear,190,2012-09-28 02:51:00
8:51 PM,73.0,30.9,21,29.86,10.0,West,3.5,-,N/A,,Clear,280,2012-09-28 03:51:00
9:51 PM,66.0,30.9,27,29.86,10.0,SSE,6.9,-,N/A,,Clear,160,2012-09-28 04:51:00
10:51 PM,64.9,30.9,28,29.85,10.0,Calm,Calm,-,N/A,,Clear,0,2012-09-28 05:51:00
11:51 PM,63.0,30.9,30,29.85,10.0,SSE,4.6,-,N/A,,Clear,150,2012-09-28 06:51:00